Time;durP1;ratioP1;P1;durP2;ratioP2;P2;SDS_P1;SDS_P2;PMS_P1;PMS_P2;Temp;Humidity;BMP_temperature;BMP_pressure;BME280_temperature;BME280_humidity;BME280_pressure;Samples;Min_cycle;Max_cycle;Signal;HPM_P1;HPM_P2
2023/07/19 00:02:23;;;;;;;16.45;8.23;;;18.20;99.90;;;;;;5128730;27;20437;-66
2023/07/19 00:04:50;;;;;;;16.75;7.63;;;18.10;99.90;;;;;;5130401;27;20088;-66
2023/07/19 00:07:17;;;;;;;17.85;7.70;;;18.20;99.90;;;;;;5110432;28;20048;-66
2023/07/19 00:09:44;;;;;;;14.55;7.80;;;18.20;99.90;;;;;;5129003;27;20039;-66
2023/07/19 00:12:11;;;;;;;12.80;6.45;;;18.20;99.90;;;;;;5133457;27;20403;-66
2023/07/19 00:14:38;;;;;;;;;;;18.20;99.90;;;;;;5133871;27;20043;-66
2023/07/19 00:17:04;;;;;;;12.25;7.15;;;18.30;99.90;;;;;;5128001;27;19959;-66
2023/07/19 00:19:31;;;;;;;15.32;7.53;;;18.30;99.90;;;;;;5132089;27;20038;-66
2023/07/19 00:21:58;;;;;;;16.33;7.55;;;18.30;99.90;;;;;;5132171;27;20061;-66
2023/07/19 00:24:25;;;;;;;13.57;7.47;;;18.30;99.90;;;;;;5133069;27;20051;-66
2023/07/19 00:26:51;;;;;;;13.95;7.22;;;18.30;99.90;;;;;;5133598;27;20049;-66
2023/07/19 00:29:18;;;;;;;14.27;7.28;;;18.30;99.90;;;;;;5100941;28;20043;-66
2023/07/19 00:31:45;;;;;;;17.38;7.40;;;18.30;99.90;;;;;;5096535;28;20051;-66
2023/07/19 00:34:12;;;;;;;13.30;7.25;;;18.30;99.90;;;;;;5113172;27;20035;-66
2023/07/19 00:36:39;;;;;;;15.00;6.85;;;18.30;99.90;;;;;;5108420;28;20054;-66
2023/07/19 00:39:05;;;;;;;17.40;7.80;;;18.30;99.90;;;;;;5109954;27;20071;-66
2023/07/19 00:41:34;;;;;;;11.85;6.90;;;18.30;99.90;;;;;;5114055;27;20088;-66
2023/07/19 00:44:00;;;;;;;17.73;7.40;;;18.30;99.90;;;;;;5097655;27;20061;-66
2023/07/19 00:46:27;;;;;;;11.85;7.40;;;18.30;99.90;;;;;;5114413;27;20128;-66
2023/07/19 00:48:56;;;;;;;22.13;7.80;;;18.30;99.90;;;;;;5127622;27;20407;-66
2023/07/19 00:51:23;;;;;;;17.52;6.07;;;18.20;99.90;;;;;;5102393;27;20054;-66
2023/07/19 00:53:51;;;;;;;21.48;7.03;;;18.20;99.90;;;;;;5104619;28;20369;-66
2023/07/19 00:56:18;;;;;;;12.73;7.00;;;18.20;99.90;;;;;;5096853;27;20043;-66
2023/07/19 00:58:45;;;;;;;17.58;7.43;;;18.20;99.90;;;;;;5106768;28;20131;-66
2023/07/19 01:01:12;;;;;;;15.68;7.13;;;18.20;99.90;;;;;;5106922;27;20043;-66
2023/07/19 01:03:39;;;;;;;17.33;6.60;;;18.20;99.90;;;;;;5127664;27;20372;-66
2023/07/19 01:06:06;;;;;;;16.90;7.07;;;18.10;99.90;;;;;;5131985;27;20043;-66
2023/07/19 01:08:33;;;;;;;15.45;7.05;;;17.90;99.90;;;;;;5111043;27;20559;-66
2023/07/19 01:11:00;;;;;;;12.63;6.50;;;18.00;99.90;;;;;;5105516;27;20043;-66
2023/07/19 01:13:27;;;;;;;15.00;6.63;;;18.60;99.90;;;;;;5108345;28;20039;-66
2023/07/19 01:15:54;;;;;;;16.52;7.50;;;18.00;99.90;;;;;;5093682;28;20055;-66
2023/07/19 01:18:21;;;;;;;16.13;7.40;;;18.00;99.90;;;;;;5130852;27;20502;-66
2023/07/19 01:20:48;;;;;;;11.57;7.07;;;18.00;99.90;;;;;;5106132;28;20039;-66
2023/07/19 01:23:15;;;;;;;11.77;6.95;;;18.00;99.90;;;;;;5106128;27;20078;-66
2023/07/19 01:25:42;;;;;;;12.70;7.18;;;18.00;99.90;;;;;;5132942;27;20039;-66
2023/07/19 01:28:09;;;;;;;14.40;7.22;;;18.00;99.90;;;;;;5111954;28;20039;-66
2023/07/19 01:30:36;;;;;;;14.25;7.13;;;17.90;99.90;;;;;;5108393;28;20487;-66
2023/07/19 01:33:03;;;;;;;17.00;7.13;;;18.10;99.90;;;;;;5104482;28;20046;-66
2023/07/19 01:35:30;;;;;;;12.73;7.13;;;18.10;99.90;;;;;;5132362;27;20047;-66
2023/07/19 01:37:58;;;;;;;14.80;7.53;;;18.10;99.90;;;;;;5123673;27;20039;-66
2023/07/19 01:40:24;;;;;;;16.63;8.40;;;18.00;99.90;;;;;;5123607;27;20618;-66
2023/07/19 01:42:51;;;;;;;16.60;7.28;;;18.00;99.90;;;;;;5112700;28;20083;-66
2023/07/19 01:45:19;;;;;;;17.38;7.93;;;18.00;99.90;;;;;;5110528;28;20055;-66
2023/07/19 01:47:46;;;;;;;14.15;7.55;;;18.20;99.90;;;;;;5104923;28;20031;-66
2023/07/19 01:50:13;;;;;;;16.17;6.95;;;18.00;99.90;;;;;;5127053;27;20050;-66
2023/07/19 01:52:40;;;;;;;12.32;6.60;;;18.00;99.90;;;;;;5099546;28;20039;-66
2023/07/19 01:55:07;;;;;;;9.60;6.47;;;18.00;99.90;;;;;;5101818;28;20039;-66
2023/07/19 01:57:34;;;;;;;;;;;18.10;99.90;;;;;;5109320;28;20036;-66
2023/07/19 02:00:01;;;;;;;12.93;6.80;;;18.10;99.90;;;;;;5106063;28;19919;-66
2023/07/19 02:02:28;;;;;;;12.25;6.30;;;18.00;99.90;;;;;;5123548;27;20035;-66
2023/07/19 02:04:56;;;;;;;28.13;7.90;;;18.00;99.90;;;;;;5101737;28;20126;-66
2023/07/19 02:07:23;;;;;;;20.92;7.95;;;18.00;99.90;;;;;;5130832;28;20077;-66
2023/07/19 02:09:50;;;;;;;18.27;6.53;;;18.00;99.90;;;;;;5105292;28;20134;-66
2023/07/19 02:12:17;;;;;;;13.55;6.28;;;18.60;99.90;;;;;;5105600;28;20122;-66
2023/07/19 02:14:44;;;;;;;15.77;6.82;;;18.00;99.90;;;;;;5104399;28;20126;-66
2023/07/19 02:17:11;;;;;;;12.85;6.90;;;18.00;99.90;;;;;;5101063;28;20043;-66
2023/07/19 02:19:38;;;;;;;;;;;18.00;99.90;;;;;;5100472;28;20035;-66
2023/07/19 02:22:05;;;;;;;15.18;6.88;;;18.00;99.90;;;;;;5101782;28;20417;-66
2023/07/19 02:24:34;;;;;;;16.77;6.95;;;18.00;99.90;;;;;;5112845;28;20031;-66
2023/07/19 02:27:00;;;;;;;10.38;6.10;;;18.00;99.90;;;;;;5105583;28;20142;-66
2023/07/19 02:29:27;;;;;;;13.50;6.55;;;17.90;99.90;;;;;;5111361;27;20051;-66
2023/07/19 02:31:54;;;;;;;13.80;6.00;;;18.00;99.90;;;;;;5132059;28;20139;-66
2023/07/19 02:34:21;;;;;;;;;;;18.00;99.90;;;;;;5131727;27;20039;-66
2023/07/19 02:36:49;;;;;;;15.15;5.28;;;17.90;99.90;;;;;;5130526;27;19930;-66
2023/07/19 02:39:20;;;;;;;12.23;5.50;;;18.00;99.90;;;;;;5113020;28;20036;-66
2023/07/19 02:41:46;;;;;;;11.45;5.50;;;17.80;99.90;;;;;;5098967;28;20032;-66
2023/07/19 02:44:13;;;;;;;11.63;5.95;;;17.80;99.90;;;;;;5099979;28;20040;-66
2023/07/19 02:46:40;;;;;;;13.85;6.28;;;17.90;99.90;;;;;;5108558;28;20454;-66
2023/07/19 02:49:07;;;;;;;15.88;5.82;;;17.90;99.90;;;;;;5094364;28;20050;-65
2023/07/19 02:51:34;;;;;;;10.68;5.55;;;17.90;99.90;;;;;;5106183;28;20378;-66
2023/07/19 02:54:01;;;;;;;15.77;7.05;;;17.90;99.90;;;;;;5106828;28;20506;-66
2023/07/19 02:56:27;;;;;;;16.38;5.75;;;17.90;99.90;;;;;;5102277;27;20055;-66
2023/07/19 02:58:54;;;;;;;15.18;7.05;;;17.80;99.90;;;;;;5099927;28;20044;-66
2023/07/19 03:01:21;;;;;;;16.85;5.90;;;17.80;99.90;;;;;;5130736;27;20082;-66
2023/07/19 03:03:49;;;;;;;18.20;6.85;;;17.80;99.90;;;;;;5110225;28;20046;-66
2023/07/19 03:06:17;;;;;;;14.88;6.47;;;17.80;99.90;;;;;;5105108;27;20084;-66
2023/07/19 03:08:44;;;;;;;12.02;6.93;;;17.70;99.90;;;;;;5131868;27;20042;-66
2023/07/19 03:11:11;;;;;;;15.80;6.88;;;17.80;99.90;;;;;;5134547;27;20051;-66
2023/07/19 03:13:38;;;;;;;14.93;6.78;;;17.70;99.90;;;;;;5135081;27;20069;-66
2023/07/19 03:16:05;;;;;;;17.48;6.93;;;17.80;99.90;;;;;;5112295;27;20411;-66
2023/07/19 03:18:32;;;;;;;;;;;17.70;99.90;;;;;;5102467;27;20898;-66
2023/07/19 03:21:01;;;;;;;15.65;6.07;;;17.80;99.90;;;;;;5113023;27;19920;-66
2023/07/19 03:23:32;;;;;;;14.13;6.35;;;17.90;99.90;;;;;;5103075;27;20391;-66
2023/07/19 03:26:00;;;;;;;13.50;5.20;;;17.90;99.90;;;;;;5134939;27;20043;-66
2023/07/19 03:28:29;;;;;;;21.02;5.60;;;17.90;99.90;;;;;;5114991;27;20046;-66
2023/07/19 03:30:57;;;;;;;15.60;5.60;;;17.90;99.90;;;;;;5103098;28;20454;-66
2023/07/19 03:33:25;;;;;;;15.32;5.80;;;17.90;99.90;;;;;;5106628;27;20096;-66
2023/07/19 03:35:52;;;;;;;23.35;5.82;;;17.90;99.90;;;;;;5115990;27;20039;-66
2023/07/19 03:38:20;;;;;;;11.80;5.88;;;17.90;99.90;;;;;;5115071;27;20510;-66
2023/07/19 03:40:49;;;;;;;12.77;6.00;;;17.90;99.90;;;;;;5122696;27;20045;-66
2023/07/19 03:43:16;;;;;;;17.30;6.35;;;17.90;99.90;;;;;;5106456;27;20096;-66
2023/07/19 03:45:42;;;;;;;17.50;7.18;;;17.70;99.90;;;;;;5138279;27;20031;-66
2023/07/19 03:48:09;;;;;;;11.80;5.85;;;17.90;99.90;;;;;;5100857;27;20073;-66
2023/07/19 03:50:36;;;;;;;18.35;7.20;;;17.90;99.90;;;;;;5116097;27;20046;-66
2023/07/19 03:53:04;;;;;;;21.27;7.35;;;17.90;99.90;;;;;;5099283;27;20035;-66
2023/07/19 03:55:32;;;;;;;12.23;5.72;;;17.90;99.90;;;;;;5107428;27;20083;-66
2023/07/19 03:58:01;;;;;;;12.18;5.53;;;18.80;99.90;;;;;;5110377;27;20043;-66
2023/07/19 04:00:28;;;;;;;16.73;6.07;;;17.90;99.90;;;;;;5112406;27;20043;-66
2023/07/19 04:02:55;;;;;;;14.55;4.88;;;18.00;99.90;;;;;;5114279;27;20123;-66
2023/07/19 04:05:22;;;;;;;17.23;5.72;;;18.00;99.90;;;;;;5115043;27;20043;-66
2023/07/19 04:07:49;;;;;;;11.43;5.47;;;18.00;99.90;;;;;;5112559;27;20134;-66
2023/07/19 04:10:17;;;;;;;11.85;5.03;;;18.00;99.90;;;;;;5114055;27;20423;-66
2023/07/19 04:12:44;;;;;;;;;;;18.00;99.90;;;;;;5114246;27;20560;-65
2023/07/19 04:15:11;;;;;;;12.02;4.97;;;18.10;99.90;;;;;;5114218;27;19934;-66
2023/07/19 04:17:38;;;;;;;11.90;4.55;;;18.00;99.90;;;;;;5113130;27;20063;-66
2023/07/19 04:20:06;;;;;;;18.95;5.75;;;18.10;99.90;;;;;;5110907;27;20535;-66
2023/07/19 04:22:33;;;;;;;13.32;5.28;;;18.00;99.90;;;;;;5113066;27;20547;-66
2023/07/19 04:25:01;;;;;;;12.50;5.45;;;18.20;99.90;;;;;;5144503;27;20043;-66
2023/07/19 04:27:28;;;;;;;13.48;5.03;;;18.10;99.90;;;;;;5107160;27;20047;-65
2023/07/19 04:29:54;;;;;;;12.90;5.30;;;18.10;99.90;;;;;;5089218;27;20043;-66
2023/07/19 04:32:21;;;;;;;11.48;4.80;;;18.20;99.90;;;;;;5107100;27;20070;-65
2023/07/19 04:34:55;;;;;;;11.23;5.30;;;18.20;99.90;;;;;;5133168;27;20034;-65
2023/07/19 04:37:22;;;;;;;18.48;4.95;;;18.20;99.90;;;;;;5117250;27;20066;-65
2023/07/19 04:39:49;;;;;;;;;;;18.30;99.90;;;;;;5111924;27;20118;-65
2023/07/19 04:42:18;;;;;;;11.95;4.68;;;18.40;99.90;;;;;;5106380;27;19919;-65
2023/07/19 04:44:46;;;;;;;15.35;4.93;;;18.60;99.90;;;;;;5123532;27;20049;-66
2023/07/19 04:47:13;;;;;;;11.20;4.97;;;18.40;99.90;;;;;;5098350;27;20047;-66
2023/07/19 04:49:39;;;;;;;11.60;4.75;;;18.30;99.90;;;;;;5104692;28;20083;-65
2023/07/19 04:52:06;;;;;;;11.15;4.82;;;18.20;99.90;;;;;;5114019;27;20059;-66
2023/07/19 04:54:33;;;;;;;;;;;18.00;99.90;;;;;;5112399;27;20066;-66
2023/07/19 04:57:00;;;;;;;12.75;5.40;;;17.90;99.90;;;;;;5106773;27;19920;-66
2023/07/19 04:59:27;;;;;;;20.17;5.82;;;17.80;99.90;;;;;;5111340;27;20074;-66
2023/07/19 05:01:54;;;;;;;11.93;4.90;;;17.70;99.90;;;;;;5110421;27;20385;-66
2023/07/19 05:04:21;;;;;;;16.77;5.25;;;17.70;99.90;;;;;;5108945;27;20123;-66
2023/07/19 05:06:49;;;;;;;14.98;5.28;;;17.80;99.90;;;;;;5109758;27;20677;-65
2023/07/19 05:09:17;;;;;;;12.43;5.15;;;17.80;99.90;;;;;;5113118;27;20575;-66
2023/07/19 05:11:44;;;;;;;13.18;5.22;;;17.80;99.90;;;;;;5103877;27;20066;-66
2023/07/19 05:14:11;;;;;;;13.90;5.00;;;17.80;99.90;;;;;;5107000;28;20117;-65
2023/07/19 05:16:38;;;;;;;16.05;5.10;;;17.70;99.90;;;;;;5123750;27;20041;-66
2023/07/19 05:19:06;;;;;;;15.45;5.20;;;17.90;99.90;;;;;;5112703;27;20061;-65
2023/07/19 05:21:33;;;;;;;13.10;5.90;;;17.90;99.90;;;;;;5103262;28;20150;-66
2023/07/19 05:24:00;;;;;;;15.95;5.85;;;17.90;99.90;;;;;;5111796;28;20044;-66
2023/07/19 05:26:27;;;;;;;11.60;5.60;;;17.90;99.90;;;;;;5110980;28;20139;-65
2023/07/19 05:28:54;;;;;;;14.07;5.20;;;17.80;99.90;;;;;;5131675;27;20046;-65
2023/07/19 05:31:21;;;;;;;11.57;4.20;;;17.80;99.90;;;;;;5129124;27;20130;-65
2023/07/19 05:33:48;;;;;;;12.93;4.95;;;17.70;99.90;;;;;;5123617;27;20043;-66
2023/07/19 05:36:15;;;;;;;12.05;5.80;;;17.80;99.90;;;;;;5131894;27;20538;-66
2023/07/19 05:38:41;;;;;;;13.65;5.88;;;17.90;99.90;;;;;;5129672;27;20072;-66
2023/07/19 05:41:08;;;;;;;8.32;4.68;;;17.80;99.90;;;;;;5131809;28;20115;-66
2023/07/19 05:43:35;;;;;;;13.90;5.13;;;17.80;99.90;;;;;;5131447;27;20032;-66
2023/07/19 05:46:06;;;;;;;16.85;5.57;;;17.90;99.90;;;;;;5128397;28;20047;-66
2023/07/19 05:48:34;;;;;;;10.38;5.05;;;17.90;99.90;;;;;;5131142;27;20114;-66
2023/07/19 05:51:02;;;;;;;8.18;5.13;;;17.80;99.90;;;;;;5124162;27;20130;-65
2023/07/19 05:53:29;;;;;;;14.35;5.55;;;17.80;99.90;;;;;;5131378;27;20407;-65
2023/07/19 05:55:56;;;;;;;13.48;5.43;;;17.80;99.90;;;;;;5132010;28;20079;-66
2023/07/19 05:58:23;;;;;;;10.80;4.70;;;17.90;99.90;;;;;;5130318;27;20032;-66
2023/07/19 06:00:50;;;;;;;13.05;5.18;;;18.10;99.90;;;;;;5130850;28;20479;-66
2023/07/19 06:03:17;;;;;;;16.08;5.57;;;18.20;99.90;;;;;;5131975;27;20114;-66
2023/07/19 06:05:44;;;;;;;14.38;6.18;;;18.50;99.90;;;;;;5132003;28;20447;-65
2023/07/19 06:08:12;;;;;;;14.40;6.43;;;18.70;99.90;;;;;;5122739;28;20046;-66
2023/07/19 06:10:51;;;;;;;15.43;4.97;;;18.70;99.90;;;;;;5132006;28;20070;-66
2023/07/19 06:13:18;;;;;;;10.98;5.05;;;18.60;99.90;;;;;;5129349;27;20077;-65
2023/07/19 06:15:44;;;;;;;12.63;4.90;;;18.40;99.90;;;;;;5130913;28;20047;-66
2023/07/19 06:18:11;;;;;;;10.95;4.55;;;18.40;99.90;;;;;;5123147;27;20119;-66
2023/07/19 06:20:38;;;;;;;12.95;4.70;;;18.20;99.90;;;;;;5129704;27;20505;-65
2023/07/19 06:23:05;;;;;;;12.95;5.40;;;18.20;99.90;;;;;;5131952;27;20395;-66
2023/07/19 06:25:32;;;;;;;12.38;5.47;;;18.10;99.90;;;;;;5131191;28;20043;-66
2023/07/19 06:27:59;;;;;;;12.45;5.18;;;18.10;99.90;;;;;;5131965;27;20529;-66
2023/07/19 06:30:26;;;;;;;14.40;5.90;;;18.00;99.90;;;;;;5136102;27;20039;-66
2023/07/19 06:32:53;;;;;;;16.10;5.80;;;18.00;99.90;;;;;;5135242;27;20047;-66
2023/07/19 06:35:20;;;;;;;12.23;6.88;;;18.00;99.90;;;;;;5133288;27;20129;-66
2023/07/19 06:37:47;;;;;;;16.23;6.53;;;18.00;99.90;;;;;;5127165;27;20047;-66
2023/07/19 06:40:15;;;;;;;17.10;6.63;;;17.90;99.90;;;;;;5135309;27;20438;-66
2023/07/19 06:42:44;;;;;;;18.80;7.07;;;18.00;99.90;;;;;;5093492;27;20038;-66
2023/07/19 06:45:11;;;;;;;18.52;6.53;;;18.10;99.90;;;;;;5135319;27;20039;-66
2023/07/19 06:47:38;;;;;;;21.42;6.53;;;18.20;99.90;;;;;;5126844;27;20074;-65
2023/07/19 06:50:06;;;;;;;16.65;5.80;;;18.20;99.90;;;;;;5129932;27;20051;-66
2023/07/19 06:52:32;;;;;;;17.75;6.90;;;18.20;99.90;;;;;;5131985;27;20051;-66
2023/07/19 06:54:59;;;;;;;15.15;7.00;;;18.20;99.90;;;;;;5135098;27;20035;-66
2023/07/19 06:57:26;;;;;;;18.13;6.70;;;18.10;99.90;;;;;;5135280;27;20043;-66
2023/07/19 06:59:53;;;;;;;21.02;7.05;;;18.10;99.90;;;;;;5128287;27;20046;-66
2023/07/19 07:02:20;;;;;;;13.07;6.82;;;18.00;99.90;;;;;;5134526;27;20062;-66
2023/07/19 07:04:47;;;;;;;14.20;6.53;;;18.10;99.90;;;;;;5126625;27;20047;-66
2023/07/19 07:07:19;;;;;;;15.60;6.30;;;18.00;99.90;;;;;;5128596;27;20078;-66
2023/07/19 07:09:46;;;;;;;18.25;8.27;;;18.00;99.90;;;;;;5129288;27;20053;-66
2023/07/19 07:12:13;;;;;;;15.60;6.93;;;18.00;99.90;;;;;;5133578;27;20134;-66
2023/07/19 07:14:40;;;;;;;;;;;18.00;99.90;;;;;;5133443;27;20079;-66
2023/07/19 07:17:07;;;;;;;20.65;8.15;;;18.00;99.90;;;;;;5108362;27;19923;-66
2023/07/19 07:19:34;;;;;;;14.63;7.03;;;18.10;99.90;;;;;;5134238;27;20122;-66
2023/07/19 07:22:01;;;;;;;15.32;6.28;;;18.20;99.90;;;;;;5134826;27;20043;-66
2023/07/19 07:24:28;;;;;;;16.50;7.30;;;18.20;99.90;;;;;;5126221;27;20047;-66
2023/07/19 07:26:54;;;;;;;13.05;6.53;;;18.20;99.90;;;;;;5134266;27;20051;-66
2023/07/19 07:29:21;;;;;;;13.75;7.18;;;18.30;99.90;;;;;;5133839;27;21400;-66
2023/07/19 07:31:48;;;;;;;16.05;7.40;;;18.20;99.90;;;;;;5133904;27;20118;-66
2023/07/19 07:34:15;;;;;;;16.85;7.93;;;18.30;99.90;;;;;;5127579;27;20047;-66
2023/07/19 07:36:42;;;;;;;14.43;7.30;;;18.30;99.90;;;;;;5134450;27;20050;-66
2023/07/19 07:39:08;;;;;;;15.75;6.32;;;18.20;99.90;;;;;;5128716;27;20050;-66
2023/07/19 07:41:35;;;;;;;16.98;7.55;;;18.10;99.90;;;;;;5131058;27;20075;-66
2023/07/19 07:44:02;;;;;;;14.35;8.18;;;18.20;99.90;;;;;;5112716;27;20043;-66
2023/07/19 07:46:29;;;;;;;21.45;8.48;;;18.10;99.90;;;;;;5134378;27;20050;-66
2023/07/19 07:48:59;;;;;;;21.40;8.77;;;18.00;99.90;;;;;;5133571;27;20046;-67
2023/07/19 07:51:30;;;;;;;21.25;9.20;;;18.10;99.90;;;;;;5134003;27;20080;-66
2023/07/19 07:53:57;;;;;;;20.67;8.20;;;18.10;99.90;;;;;;5125840;27;20077;-66
2023/07/19 07:56:24;;;;;;;17.40;8.70;;;18.00;99.90;;;;;;5133835;27;20045;-66
2023/07/19 07:58:51;;;;;;;;;;;18.20;99.90;;;;;;5134153;27;20070;-66
2023/07/19 08:01:18;;;;;;;18.95;7.25;;;18.10;99.90;;;;;;5106890;28;19923;-66
2023/07/19 08:03:45;;;;;;;12.80;6.68;;;18.20;99.90;;;;;;5125019;27;20043;-66
2023/07/19 08:06:12;;;;;;;13.07;5.85;;;18.20;99.90;;;;;;5130870;27;20383;-67
2023/07/19 08:08:39;;;;;;;9.65;5.43;;;18.40;99.90;;;;;;5130218;27;20484;-66
2023/07/19 08:11:06;;;;;;;16.30;6.40;;;18.60;99.90;;;;;;5130930;27;20031;-66
2023/07/19 08:13:33;;;;;;;21.25;6.65;;;18.80;99.90;;;;;;5129633;27;20047;-66
2023/07/19 08:16:00;;;;;;;13.43;6.70;;;19.10;99.90;;;;;;5131948;27;20031;-66
2023/07/19 08:18:27;;;;;;;15.93;6.65;;;19.30;99.90;;;;;;5133047;27;20046;-66
2023/07/19 08:20:54;;;;;;;;;;;19.60;99.90;;;;;;5129779;27;20067;-66
2023/07/19 08:23:22;;;;;;;10.15;5.07;;;20.10;99.90;;;;;;5127433;27;19919;-66
2023/07/19 08:25:55;;;;;;;11.05;5.30;;;20.50;99.90;;;;;;5132938;27;20093;-67
2023/07/19 08:28:24;;;;;;;11.90;5.65;;;21.00;99.90;;;;;;5126907;27;20038;-66
2023/07/19 08:30:52;;;;;;;14.02;6.20;;;21.30;99.90;;;;;;5127760;27;20599;-66
2023/07/19 08:33:23;;;;;;;13.60;6.28;;;20.90;99.90;;;;;;5133027;27;20053;-66
2023/07/19 08:35:51;;;;;;;13.20;5.38;;;20.70;99.90;;;;;;5129572;27;20043;-66
2023/07/19 08:38:18;;;;;;;15.40;6.03;;;20.60;99.90;;;;;;5126563;27;20035;-66
2023/07/19 08:41:06;;;;;;;13.55;5.63;;;20.40;99.90;;;;;;5132774;27;20047;-66
2023/07/19 08:43:36;;;;;;;11.48;5.63;;;20.30;99.90;;;;;;5133476;27;20047;-66
2023/07/19 08:46:03;;;;;;;14.73;6.45;;;20.10;99.90;;;;;;5131522;27;20031;-66
2023/07/19 08:48:34;;;;;;;;;;;20.00;99.90;;;;;;5119326;27;20027;-66
2023/07/19 08:51:01;;;;;;;16.40;6.45;;;20.00;99.90;;;;;;5132001;27;19923;-66
2023/07/19 08:53:28;;;;;;;18.33;7.40;;;20.10;99.90;;;;;;5133026;27;20546;-66
2023/07/19 08:55:57;;;;;;;19.75;7.38;;;20.30;99.90;;;;;;5131296;27;20118;-66
2023/07/19 08:58:24;;;;;;;16.25;6.30;;;20.50;99.90;;;;;;5132731;27;20073;-66
2023/07/19 09:00:51;;;;;;;13.77;5.88;;;20.50;99.90;;;;;;5132450;27;20054;-66
2023/07/19 09:03:18;;;;;;;12.30;6.78;;;20.50;99.90;;;;;;5127395;27;20115;-66
2023/07/19 09:05:46;;;;;;;16.35;7.20;;;20.40;99.90;;;;;;5126987;27;20550;-66
2023/07/19 09:08:13;;;;;;;17.02;7.78;;;20.40;99.90;;;;;;5122400;27;20039;-66
2023/07/19 09:10:45;;;;;;;13.60;6.72;;;20.30;99.90;;;;;;5124524;27;20048;-66
2023/07/19 09:13:20;;;;;;;13.05;7.35;;;20.20;99.90;;;;;;5103573;28;20043;-66
2023/07/19 09:15:50;;;;;;;13.35;6.93;;;20.30;99.90;;;;;;5119149;27;20458;-66
2023/07/19 09:18:17;;;;;;;16.35;6.88;;;20.20;99.90;;;;;;5129402;27;20046;-66
2023/07/19 09:20:44;;;;;;;15.70;6.63;;;20.20;99.90;;;;;;5128936;27;20095;-66
2023/07/19 09:23:16;;;;;;;14.02;7.53;;;20.20;99.90;;;;;;5120864;27;20203;-66
2023/07/19 09:25:57;;;;;;;16.70;7.45;;;20.30;99.90;;;;;;5132429;27;20039;-66
2023/07/19 09:28:24;;;;;;;14.00;6.78;;;20.40;99.90;;;;;;5125619;27;20546;-66
2023/07/19 09:31:02;;;;;;;13.25;6.60;;;20.50;99.90;;;;;;5123552;27;20158;-66
2023/07/19 09:33:55;;;;;;;13.63;6.18;;;20.70;99.90;;;;;;5126877;27;20100;-66
2023/07/19 09:36:22;;;;;;;11.18;6.03;;;21.00;99.90;;;;;;5122061;27;20084;-66
2023/07/19 09:38:50;;;;;;;16.83;6.43;;;21.20;99.90;;;;;;5123765;27;20031;-66
2023/07/19 09:41:17;;;;;;;11.93;5.68;;;21.50;99.90;;;;;;5132241;28;20043;-66
2023/07/19 09:43:47;;;;;;;14.05;6.57;;;21.60;99.90;;;;;;5131923;28;20046;-66
2023/07/19 09:46:14;;;;;;;15.27;6.93;;;21.50;99.90;;;;;;5094565;28;20053;-66
2023/07/19 09:48:41;;;;;;;13.57;6.45;;;21.40;99.90;;;;;;5127309;28;20057;-66
2023/07/19 09:51:08;;;;;;;18.55;6.70;;;21.30;99.90;;;;;;5123588;27;20085;-66
2023/07/19 09:53:38;;;;;;;21.20;7.63;;;21.30;99.90;;;;;;5124881;27;20065;-66
2023/07/19 09:56:09;;;;;;;12.65;6.53;;;21.20;99.90;;;;;;5126832;27;20078;-66
2023/07/19 09:58:36;;;;;;;15.20;7.20;;;21.20;99.90;;;;;;5113517;28;20061;-66
2023/07/19 10:01:03;;;;;;;16.23;7.63;;;21.00;99.90;;;;;;5132129;28;20122;-66
2023/07/19 10:03:30;;;;;;;13.60;6.30;;;20.70;99.90;;;;;;5122633;27;20043;-66
2023/07/19 10:05:58;;;;;;;16.60;7.25;;;20.40;99.90;;;;;;5133463;27;20077;-67
2023/07/19 10:08:25;;;;;;;14.00;6.78;;;20.40;99.90;;;;;;5129520;27;20484;-66
2023/07/19 10:10:58;;;;;;;13.43;7.63;;;20.50;99.90;;;;;;5102197;27;20054;-66
2023/07/19 10:13:56;;;;;;;15.65;7.50;;;20.40;99.90;;;;;;5136096;27;20055;-66
2023/07/19 10:16:35;;;;;;;19.52;6.75;;;20.50;99.90;;;;;;5130642;27;20031;-66
2023/07/19 10:19:10;;;;;;;14.20;7.40;;;20.50;99.90;;;;;;5135714;27;20051;-66
2023/07/19 10:21:37;;;;;;;17.25;6.85;;;20.50;99.90;;;;;;5130890;27;20078;-66
2023/07/19 10:24:06;;;;;;;18.90;6.88;;;20.70;99.90;;;;;;5110135;27;20043;-66
2023/07/19 10:26:36;;;;;;;16.52;6.50;;;20.70;99.90;;;;;;5136060;27;20039;-66
2023/07/19 10:29:04;;;;;;;12.30;6.85;;;21.00;99.90;;;;;;5117556;27;20043;-66
2023/07/19 10:31:31;;;;;;;12.18;6.35;;;21.50;99.90;;;;;;5129265;27;20597;-67
2023/07/19 10:33:58;;;;;;;17.63;7.50;;;22.00;99.90;;;;;;5132574;27;20039;-66
2023/07/19 10:36:25;;;;;;;16.45;6.75;;;22.50;99.90;;;;;;5136065;27;20084;-66
2023/07/19 10:38:52;;;;;;;;;;;22.70;99.90;;;;;;5135007;27;20035;-66
2023/07/19 10:41:20;;;;;;;12.68;6.43;;;23.10;99.90;;;;;;5120604;27;19919;-66
2023/07/19 10:43:47;;;;;;;12.68;6.75;;;23.50;99.90;;;;;;5128690;27;20066;-66
2023/07/19 10:46:21;;;;;;;17.55;6.82;;;23.50;99.90;;;;;;5135380;27;20432;-66
2023/07/19 10:48:50;;;;;;;11.20;7.18;;;23.60;99.90;;;;;;5122422;27;20044;-66
2023/07/19 10:51:18;;;;;;;13.93;6.03;;;23.50;99.90;;;;;;5133630;27;20035;-66
2023/07/19 10:53:57;;;;;;;15.88;6.15;;;23.50;99.90;;;;;;5135239;27;20046;-66
2023/07/19 10:56:26;;;;;;;19.40;7.35;;;23.80;99.90;;;;;;5127429;27;20043;-66
2023/07/19 10:58:57;;;;;;;18.65;6.43;;;24.00;99.90;;;;;;5134715;27;20043;-66
2023/07/19 11:01:29;;;;;;;12.55;6.45;;;24.20;99.90;;;;;;5130772;27;20023;-66
2023/07/19 11:04:04;;;;;;;12.88;6.45;;;24.30;99.90;;;;;;5132151;27;20134;-66
2023/07/19 11:06:33;;;;;;;7.75;4.90;;;24.20;99.90;;;;;;5135352;27;20080;-66
2023/07/19 11:09:07;;;;;;;13.73;6.30;;;24.50;99.90;;;;;;5133247;27;20047;-66
2023/07/19 11:11:38;;;;;;;9.50;5.70;;;24.50;99.90;;;;;;5128668;27;20115;-66
2023/07/19 11:14:05;;;;;;;11.70;5.95;;;24.60;99.90;;;;;;5130946;27;20555;-66
2023/07/19 11:16:33;;;;;;;12.88;6.70;;;24.70;99.90;;;;;;5129103;27;20041;-66
2023/07/19 11:19:00;;;;;;;19.15;7.00;;;24.60;99.90;;;;;;5132331;27;20081;-66
2023/07/19 11:21:27;;;;;;;10.00;6.30;;;24.70;99.90;;;;;;5134894;27;20039;-66
2023/07/19 11:23:55;;;;;;;15.35;6.93;;;24.80;99.90;;;;;;5108734;28;20058;-66
2023/07/19 11:26:21;;;;;;;16.33;6.63;;;24.90;99.90;;;;;;5121034;27;20035;-66
2023/07/19 11:28:54;;;;;;;13.43;6.80;;;25.00;99.90;;;;;;5126412;27;20027;-66
2023/07/19 11:31:35;;;;;;;9.35;5.85;;;25.00;99.90;;;;;;5125224;27;20039;-66
2023/07/19 11:34:16;;;;;;;12.90;6.47;;;25.10;99.90;;;;;;5122489;27;20133;-66
2023/07/19 11:36:45;;;;;;;17.40;5.72;;;25.30;99.90;;;;;;5124788;27;20049;-66
2023/07/19 11:39:22;;;;;;;15.20;6.93;;;25.50;99.90;;;;;;5132428;27;20043;-66
2023/07/19 11:41:49;;;;;;;13.43;5.65;;;25.50;99.90;;;;;;5134238;27;20058;-66
2023/07/19 11:44:20;;;;;;;;;;;25.70;99.90;;;;;;5128718;27;20088;-66
2023/07/19 11:46:47;;;;;;;12.93;6.13;;;26.00;99.90;;;;;;5127117;27;19958;-66
2023/07/19 11:49:14;;;;;;;12.25;6.38;;;26.10;99.90;;;;;;5132411;27;20429;-66
2023/07/19 11:51:41;;;;;;;;;;;26.10;99.90;;;;;;5127021;27;20031;-66
2023/07/19 11:54:08;;;;;;;13.55;5.63;;;26.20;99.90;;;;;;5127262;27;20014;-67
2023/07/19 11:56:36;;;;;;;;;;;26.40;99.90;;;;;;5129258;27;20131;-67
2023/07/19 11:59:03;;;;;;;12.23;6.27;;;26.80;99.90;;;;;;5133361;27;19923;-67
2023/07/19 12:01:30;;;;;;;9.88;5.13;;;27.20;99.90;;;;;;5134199;27;20038;-66
2023/07/19 12:03:59;;;;;;;11.20;5.90;;;27.30;99.90;;;;;;5126984;27;20126;-66
2023/07/19 12:06:28;;;;;;;7.20;5.18;;;27.20;99.90;;;;;;5121764;27;20043;-66
2023/07/19 12:08:55;;;;;;;8.05;5.07;;;27.50;99.90;;;;;;5132193;27;20066;-67
2023/07/19 12:11:22;;;;;;;;;;;27.30;99.90;;;;;;5133850;27;20092;-67
2023/07/19 12:13:49;;;;;;;14.13;6.30;;;27.00;99.90;;;;;;5129048;27;19920;-67
2023/07/19 12:16:19;;;;;;;10.15;5.28;;;27.20;99.90;;;;;;5127312;27;20303;-67
2023/07/19 12:18:47;;;;;;;10.82;5.88;;;27.50;99.90;;;;;;5127799;27;20038;-67
2023/07/19 12:21:14;;;;;;;10.43;6.60;;;27.80;99.90;;;;;;5133238;27;20104;-67
2023/07/19 12:23:40;;;;;;;9.10;5.53;;;28.10;99.90;;;;;;5124007;27;20039;-67
2023/07/19 12:26:09;;;;;;;7.97;5.78;;;27.90;99.90;;;;;;5123797;27;20066;-67
2023/07/19 12:28:36;;;;;;;12.63;5.43;;;28.10;99.90;;;;;;5124207;27;20077;-67
2023/07/19 12:31:03;;;;;;;14.52;5.85;;;28.50;99.90;;;;;;5133168;27;20088;-67
2023/07/19 12:33:30;;;;;;;11.48;5.82;;;29.00;99.90;;;;;;5131343;27;20365;-67
2023/07/19 12:35:57;;;;;;;;;;;29.00;99.90;;;;;;5130424;27;20972;-67
2023/07/19 12:38:24;;;;;;;9.52;5.47;;;29.10;99.90;;;;;;5126571;27;19933;-67
2023/07/19 12:40:50;;;;;;;10.55;5.68;;;29.10;99.90;;;;;;5133230;27;20088;-67
2023/07/19 12:43:17;;;;;;;;;;;29.00;99.90;;;;;;5132334;27;20039;-67
2023/07/19 12:45:44;;;;;;;8.32;5.60;;;28.70;99.90;;;;;;5126903;27;19919;-67
2023/07/19 12:48:11;;;;;;;8.80;5.45;;;28.40;99.90;;;;;;5130149;27;20035;-67